createdAt,value
2023-03-13T00:00:11.738Z,0.90
2023-03-13T00:01:11.761Z,0.80
2023-03-13T00:02:11.808Z,1.00
2023-03-13T00:03:11.721Z,0.80
2023-03-13T00:04:11.691Z,1.10
2023-03-13T00:05:11.749Z,1.00
2023-03-13T00:06:11.702Z,1.00
2023-03-13T00:07:11.673Z,0.90
2023-03-13T00:08:11.646Z,0.90
2023-03-13T00:09:11.641Z,0.80
2023-03-13T00:10:11.645Z,1.20
2023-03-13T00:11:11.640Z,0.80
2023-03-13T00:12:11.643Z,0.90
2023-03-13T00:13:11.592Z,0.90
2023-03-13T00:14:11.605Z,0.90
2023-03-13T00:15:11.588Z,0.90
2023-03-13T00:16:11.641Z,1.00
2023-03-13T00:17:11.570Z,0.90
2023-03-13T00:18:11.560Z,1.00
2023-03-13T00:19:11.538Z,0.80
2023-03-13T00:20:11.542Z,0.90
2023-03-13T00:21:11.517Z,0.90
2023-03-13T00:22:11.532Z,1.00
2023-03-13T00:23:11.491Z,0.90
2023-03-13T00:24:11.493Z,0.80
2023-03-13T00:25:11.503Z,1.00
2023-03-13T00:26:11.501Z,0.80
2023-03-13T00:27:11.456Z,0.90
2023-03-13T00:28:11.461Z,1.00
2023-03-13T00:29:11.455Z,0.90
2023-03-13T00:30:11.422Z,0.80
2023-03-13T00:31:11.506Z,1.00
2023-03-13T00:32:11.499Z,0.90
2023-03-13T00:33:11.390Z,0.60
2023-03-13T00:34:11.380Z,1.00
2023-03-13T00:35:11.376Z,0.90
2023-03-13T00:36:11.372Z,0.80
2023-03-13T00:37:11.377Z,0.80
2023-03-13T00:38:11.346Z,0.70
2023-03-13T00:39:11.345Z,0.80
2023-03-13T00:40:11.335Z,1.00
2023-03-13T00:41:11.301Z,0.70
2023-03-13T00:42:11.349Z,0.90
2023-03-13T00:43:11.295Z,0.90
2023-03-13T00:44:11.295Z,0.50
2023-03-13T00:45:11.289Z,0.70
2023-03-13T00:46:11.284Z,0.80
2023-03-13T00:47:11.284Z,0.90
2023-03-13T00:48:11.272Z,0.70
2023-03-13T00:49:11.229Z,0.80
2023-03-13T00:50:11.221Z,0.90
2023-03-13T00:51:11.197Z,0.90
2023-03-13T00:52:11.213Z,0.70
2023-03-13T00:53:11.187Z,0.70
2023-03-13T00:54:11.671Z,0.90
2023-03-13T00:55:11.169Z,0.90
2023-03-13T00:56:11.156Z,0.80
2023-03-13T00:57:11.159Z,0.80
2023-03-13T00:58:11.141Z,0.90
2023-03-13T00:59:11.132Z,0.70
2023-03-13T01:00:11.694Z,0.80
2023-03-13T01:01:11.133Z,0.80
2023-03-13T01:02:11.277Z,0.70
2023-03-13T01:03:11.230Z,0.80
2023-03-13T01:04:11.082Z,0.50
2023-03-13T01:05:11.066Z,0.60
2023-03-13T01:06:11.056Z,0.80
2023-03-13T01:07:11.083Z,0.80
2023-03-13T01:08:11.037Z,0.50
2023-03-13T01:09:11.028Z,0.80
2023-03-13T01:10:11.007Z,0.70
2023-03-13T01:11:11.006Z,0.90
2023-03-13T01:12:11.007Z,0.50
2023-03-13T01:13:10.988Z,0.70
2023-03-13T01:14:10.989Z,0.90
2023-03-13T01:15:10.954Z,0.80
2023-03-13T01:16:10.997Z,0.50
2023-03-13T01:17:10.954Z,0.90
2023-03-13T01:18:10.957Z,1.00
2023-03-13T01:19:13.105Z,0.70
2023-03-13T01:20:10.913Z,0.60
2023-03-13T01:21:10.893Z,0.60
2023-03-13T01:22:10.906Z,0.70
2023-03-13T01:23:10.876Z,0.80
2023-03-13T01:24:10.881Z,0.50
2023-03-13T01:25:10.853Z,0.60
2023-03-13T01:26:10.851Z,0.60
2023-03-13T01:27:10.859Z,0.70
2023-03-13T01:28:10.837Z,0.60
2023-03-13T01:29:10.841Z,0.70
2023-03-13T01:30:10.810Z,0.60
2023-03-13T01:31:10.819Z,0.60
2023-03-13T01:32:10.805Z,0.60
2023-03-13T01:33:10.792Z,0.50
2023-03-13T01:34:10.766Z,0.70
2023-03-13T01:35:10.754Z,0.70
2023-03-13T01:36:10.754Z,0.70
2023-03-13T01:37:10.749Z,0.60
2023-03-13T01:38:10.730Z,0.40
2023-03-13T01:39:10.710Z,0.40
2023-03-13T01:40:10.702Z,0.50
2023-03-13T01:41:10.697Z,0.40
2023-03-13T01:42:10.724Z,0.60
2023-03-13T01:43:14.520Z,0.60
2023-03-13T01:44:10.661Z,0.50
2023-03-13T01:45:10.654Z,0.70
2023-03-13T01:46:10.716Z,0.70
2023-03-13T01:47:10.659Z,0.60
2023-03-13T01:48:10.661Z,0.60
2023-03-13T01:49:10.610Z,0.60
2023-03-13T01:50:10.602Z,0.80
2023-03-13T01:51:10.602Z,0.50
2023-03-13T01:52:10.621Z,0.40
2023-03-13T01:53:10.576Z,0.40
2023-03-13T01:54:10.582Z,0.60
2023-03-13T01:55:10.576Z,0.50
2023-03-13T01:56:10.558Z,0.60
2023-03-13T01:57:10.539Z,0.60
2023-03-13T01:58:10.546Z,0.50
2023-03-13T01:59:10.517Z,0.40
2023-03-13T02:00:10.533Z,0.60
2023-03-13T02:01:10.487Z,0.60
2023-03-13T02:02:10.498Z,0.30
2023-03-13T02:03:10.569Z,0.70
2023-03-13T02:04:10.477Z,0.70
2023-03-13T02:05:10.455Z,0.60
2023-03-13T02:06:10.478Z,0.60
2023-03-13T02:07:10.446Z,0.50
2023-03-13T02:08:10.455Z,0.50
2023-03-13T02:09:10.408Z,0.50
2023-03-13T02:10:10.418Z,0.50
2023-03-13T02:11:10.394Z,0.40
2023-03-13T02:12:10.414Z,0.40
2023-03-13T02:13:10.374Z,0.60
2023-03-13T02:14:10.363Z,0.70
2023-03-13T02:15:10.346Z,0.50
2023-03-13T02:16:10.410Z,0.60
2023-03-13T02:17:10.353Z,0.50
2023-03-13T02:18:10.319Z,0.40
2023-03-13T02:19:10.303Z,0.40
2023-03-13T02:20:10.303Z,0.60
2023-03-13T02:21:10.285Z,0.50
2023-03-13T02:22:10.301Z,0.70
2023-03-13T02:23:10.266Z,0.50
2023-03-13T02:24:10.261Z,0.60
2023-03-13T02:25:10.264Z,0.60
2023-03-13T02:26:10.233Z,0.40
2023-03-13T02:27:10.227Z,0.50
2023-03-13T02:28:10.218Z,0.60
2023-03-13T02:29:10.194Z,0.80
2023-03-13T02:30:10.214Z,0.60
2023-03-13T02:31:10.311Z,0.60
2023-03-13T02:32:10.179Z,0.40
2023-03-13T02:33:10.149Z,0.60
2023-03-13T02:34:10.165Z,0.50
2023-03-13T02:35:10.135Z,0.50
2023-03-13T02:36:10.135Z,0.60
2023-03-13T02:37:10.133Z,0.50
2023-03-13T02:38:10.105Z,0.70
2023-03-13T02:39:10.094Z,0.60
2023-03-13T02:40:10.099Z,0.40
2023-03-13T02:41:10.075Z,0.40
2023-03-13T02:42:10.073Z,0.50
2023-03-13T02:43:10.045Z,0.50
2023-03-13T02:44:10.036Z,0.50
2023-03-13T02:45:10.051Z,0.40
2023-03-13T02:46:10.023Z,0.40
2023-03-13T02:47:10.027Z,0.50
2023-03-13T02:48:10.080Z,0.50
2023-03-13T02:49:09.992Z,0.30
2023-03-13T02:50:10.005Z,0.60
2023-03-13T02:51:09.966Z,0.50
2023-03-13T02:52:09.976Z,0.40
2023-03-13T02:53:09.959Z,0.50
2023-03-13T02:54:09.954Z,0.50
2023-03-13T02:55:09.929Z,0.60
2023-03-13T02:56:09.933Z,0.50
2023-03-13T02:57:09.914Z,0.30
2023-03-13T02:58:09.932Z,0.60
2023-03-13T02:59:09.881Z,0.50
2023-03-13T03:00:09.886Z,0.40
2023-03-13T03:01:09.995Z,0.50
2023-03-13T03:02:09.875Z,0.40
2023-03-13T03:03:09.850Z,0.30
2023-03-13T03:04:10.037Z,0.60
2023-03-13T03:05:09.883Z,0.30
2023-03-13T03:06:09.816Z,0.40
2023-03-13T03:07:09.866Z,0.50
2023-03-13T03:08:09.791Z,0.30
2023-03-13T03:09:09.783Z,0.30
2023-03-13T03:10:09.820Z,0.50
2023-03-13T03:11:09.755Z,0.30
2023-03-13T03:12:09.777Z,0.50
2023-03-13T03:13:09.737Z,0.50
2023-03-13T03:14:09.729Z,0.40
2023-03-13T03:15:09.710Z,0.20
2023-03-13T03:16:09.797Z,0.40
2023-03-13T03:17:09.706Z,0.40
2023-03-13T03:18:09.687Z,0.40
2023-03-13T03:19:09.678Z,0.30
2023-03-13T03:20:09.670Z,0.40
2023-03-13T03:21:09.664Z,0.30
2023-03-13T03:22:09.659Z,0.50
2023-03-13T03:23:09.625Z,0.30
2023-03-13T03:24:09.630Z,0.50
2023-03-13T03:25:09.652Z,0.60
2023-03-13T03:26:09.615Z,0.30
2023-03-13T03:27:09.599Z,0.40
2023-03-13T03:28:09.575Z,0.40
2023-03-13T03:29:09.566Z,0.50
2023-03-13T03:30:09.562Z,0.50
2023-03-13T03:31:09.558Z,0.50
2023-03-13T03:32:09.538Z,0.40
2023-03-13T03:33:09.532Z,0.30
2023-03-13T03:34:09.512Z,0.40
2023-03-13T03:35:09.562Z,0.30
2023-03-13T03:36:09.544Z,0.20
2023-03-13T03:37:09.503Z,0.20
2023-03-13T03:38:09.464Z,0.30
2023-03-13T03:39:09.451Z,0.40
2023-03-13T03:40:09.458Z,0.40
2023-03-13T03:41:09.435Z,0.30
2023-03-13T03:42:09.734Z,0.30
2023-03-13T03:43:09.412Z,0.30
2023-03-13T03:44:09.398Z,0.40
2023-03-13T03:45:09.392Z,0.50
2023-03-13T03:46:09.445Z,0.30
2023-03-13T03:47:09.480Z,0.30
2023-03-13T03:48:09.357Z,0.30
2023-03-13T03:49:09.364Z,0.40
2023-03-13T03:50:09.347Z,0.40
2023-03-13T03:51:09.340Z,0.30
2023-03-13T03:52:09.337Z,0.40
2023-03-13T03:53:09.309Z,0.30
2023-03-13T03:54:09.289Z,0.30
2023-03-13T03:55:09.291Z,0.30
2023-03-13T03:56:09.306Z,0.30
2023-03-13T03:57:09.292Z,0.30
2023-03-13T03:58:09.251Z,0.30
2023-03-13T03:59:09.245Z,0.40
2023-03-13T04:00:09.236Z,0.30
2023-03-13T04:01:09.243Z,0.40
2023-03-13T04:02:09.278Z,0.40
2023-03-13T04:03:09.290Z,0.30
2023-03-13T04:04:09.207Z,0.20
2023-03-13T04:05:09.189Z,0.30
2023-03-13T04:06:09.173Z,0.50
2023-03-13T04:07:09.187Z,0.20
2023-03-13T04:08:09.154Z,0.30
2023-03-13T04:09:09.145Z,0.30
2023-03-13T04:10:09.125Z,0.30
2023-03-13T04:11:09.126Z,0.40
2023-03-13T04:12:09.126Z,0.30
2023-03-13T04:13:09.108Z,0.30
2023-03-13T04:14:09.112Z,0.30
2023-03-13T04:15:09.104Z,0.30
2023-03-13T04:16:09.214Z,0.20
2023-03-13T04:17:09.084Z,0.40
2023-03-13T04:18:09.061Z,0.50
2023-03-13T04:19:09.040Z,0.20
2023-03-13T04:20:09.026Z,0.30
2023-03-13T04:21:09.023Z,0.30
2023-03-13T04:22:09.028Z,0.40
2023-03-13T04:23:09.007Z,0.30
2023-03-13T04:24:08.983Z,0.30
2023-03-13T04:25:09.005Z,0.20
2023-03-13T04:26:08.968Z,0.30
2023-03-13T04:27:08.998Z,0.40
2023-03-13T04:28:08.954Z,0.30
2023-03-13T04:29:08.943Z,0.20
2023-03-13T04:30:08.921Z,0.30
2023-03-13T04:31:08.996Z,0.40
2023-03-13T04:32:08.912Z,0.30
2023-03-13T04:33:08.902Z,0.40
2023-03-13T04:34:08.887Z,0.30
2023-03-13T04:35:08.898Z,0.40
2023-03-13T04:36:08.892Z,0.30
2023-03-13T04:37:08.868Z,0.30
2023-03-13T04:38:08.846Z,0.30
2023-03-13T04:39:08.826Z,0.30
2023-03-13T04:40:08.837Z,0.30
2023-03-13T04:41:08.815Z,0.40
2023-03-13T04:42:08.801Z,0.30
2023-03-13T04:43:08.794Z,0.30
2023-03-13T04:44:08.773Z,0.30
2023-03-13T04:45:08.766Z,0.30
2023-03-13T04:46:08.789Z,0.20
2023-03-13T04:47:08.762Z,0.20
2023-03-13T04:48:08.729Z,0.40
2023-03-13T04:49:09.028Z,0.40
2023-03-13T04:50:08.710Z,0.40
2023-03-13T04:51:08.741Z,0.30
2023-03-13T04:52:08.699Z,0.20
2023-03-13T04:53:08.682Z,0.40
2023-03-13T04:54:08.664Z,0.40
2023-03-13T04:55:08.675Z,0.30
2023-03-13T04:56:08.664Z,0.30
2023-03-13T04:57:08.656Z,0.20
2023-03-13T04:58:08.626Z,0.30
2023-03-13T04:59:08.625Z,0.50
2023-03-13T05:00:08.617Z,0.60
2023-03-13T05:01:08.683Z,0.50
2023-03-13T05:02:08.597Z,0.50
2023-03-13T05:03:08.574Z,0.40
2023-03-13T05:04:08.563Z,0.50
2023-03-13T05:05:08.624Z,0.30
2023-03-13T05:06:08.537Z,0.30
2023-03-13T05:07:08.578Z,0.30
2023-03-13T05:08:08.527Z,0.20
2023-03-13T05:09:08.521Z,0.30
2023-03-13T05:10:08.498Z,0.30
2023-03-13T05:11:08.492Z,0.30
2023-03-13T05:12:08.511Z,0.40
2023-03-13T05:13:08.493Z,0.30
2023-03-13T05:14:08.459Z,0.30
2023-03-13T05:15:08.460Z,0.50
2023-03-13T05:16:08.465Z,0.30
2023-03-13T05:17:08.449Z,0.30
2023-03-13T05:18:08.425Z,0.50
2023-03-13T05:19:08.412Z,0.40
2023-03-13T05:20:08.419Z,0.20
2023-03-13T05:21:08.396Z,0.40
2023-03-13T05:22:08.346Z,0.30
2023-03-13T05:23:08.317Z,0.30
2023-03-13T05:24:08.299Z,0.20
2023-03-13T05:25:08.297Z,0.20
2023-03-13T05:26:08.274Z,0.30
2023-03-13T05:27:08.300Z,0.10
2023-03-13T05:28:08.270Z,0.30
2023-03-13T05:29:08.255Z,0.30
2023-03-13T05:30:08.236Z,0.30
2023-03-13T05:31:08.292Z,0.30
2023-03-13T05:32:08.230Z,0.20
2023-03-13T05:33:08.217Z,0.20
2023-03-13T05:34:08.202Z,0.30
2023-03-13T05:35:08.188Z,0.20
2023-03-13T05:36:08.175Z,0.40
2023-03-13T05:37:08.207Z,0.20
2023-03-13T05:38:08.154Z,0.20
2023-03-13T05:39:08.144Z,0.20
2023-03-13T05:40:08.127Z,0.20
2023-03-13T05:41:08.129Z,0.20
2023-03-13T05:42:08.128Z,0.30
2023-03-13T05:43:08.099Z,0.20
2023-03-13T05:44:08.081Z,0.20
2023-03-13T05:45:08.093Z,0.20
2023-03-13T05:46:08.139Z,0.20
2023-03-13T05:47:08.078Z,0.40
2023-03-13T05:48:08.083Z,0.30
2023-03-13T05:49:08.053Z,0.20
2023-03-13T05:50:08.024Z,0.20
2023-03-13T05:51:08.029Z,0.20
2023-03-13T05:52:08.026Z,0.20
2023-03-13T05:53:07.991Z,0.20
2023-03-13T05:54:07.981Z,0.20
2023-03-13T05:55:07.985Z,0.20
2023-03-13T05:56:07.964Z,0.30
2023-03-13T05:57:07.984Z,0.30
2023-03-13T05:58:07.953Z,0.20
2023-03-13T05:59:07.950Z,0.20
2023-03-13T06:00:07.926Z,0.20
2023-03-13T06:01:07.912Z,0.20
2023-03-13T06:02:07.937Z,0.10
2023-03-13T06:03:07.899Z,0.20
2023-03-13T06:04:08.094Z,0.50
2023-03-13T06:05:08.009Z,0.20
2023-03-13T06:06:07.909Z,0.20
2023-03-13T06:07:07.858Z,0.20
2023-03-13T06:08:07.833Z,0.20
2023-03-13T06:09:07.834Z,0.10
2023-03-13T06:10:07.849Z,0.20
2023-03-13T06:11:07.829Z,0.20
2023-03-13T06:12:07.805Z,0.20
2023-03-13T06:13:19.380Z,0.20
2023-03-13T06:14:07.790Z,0.40
2023-03-13T06:15:07.768Z,0.30
2023-03-13T06:16:07.818Z,0.30
2023-03-13T06:17:07.760Z,0.30
2023-03-13T06:18:07.744Z,0.10
2023-03-13T06:19:07.718Z,0.30
2023-03-13T06:20:07.707Z,0.20
2023-03-13T06:21:07.709Z,0.20
2023-03-13T06:22:07.695Z,0.20
2023-03-13T06:23:07.688Z,0.20
2023-03-13T06:24:07.664Z,0.30
2023-03-13T06:25:07.724Z,0.20
2023-03-13T06:26:07.689Z,0.40
2023-03-13T06:27:07.683Z,0.50
2023-03-13T06:28:07.636Z,0.80
2023-03-13T06:29:07.631Z,0.30
2023-03-13T06:30:07.614Z,0.20
2023-03-13T06:31:07.632Z,0.50
2023-03-13T06:32:07.722Z,0.30
2023-03-13T06:33:07.741Z,0.20
2023-03-13T06:34:07.562Z,0.30
2023-03-13T06:35:07.560Z,0.30
2023-03-13T06:36:07.581Z,0.30
2023-03-13T06:37:07.561Z,0.30
2023-03-13T06:38:07.525Z,0.30
2023-03-13T06:39:07.522Z,0.20
2023-03-13T06:40:07.510Z,0.30
2023-03-13T06:41:07.503Z,0.30
2023-03-13T06:42:07.504Z,0.20
2023-03-13T06:43:07.479Z,0.30
2023-03-13T06:44:07.471Z,0.20
2023-03-13T06:45:07.488Z,0.30
2023-03-13T06:46:07.460Z,0.20
2023-03-13T06:47:07.488Z,0.20
2023-03-13T06:48:07.422Z,0.20
2023-03-13T06:49:07.442Z,0.20
2023-03-13T06:50:07.435Z,0.20
2023-03-13T06:51:07.402Z,0.30
2023-03-13T06:52:07.397Z,0.30
2023-03-13T06:53:07.376Z,0.30
2023-03-13T06:54:07.410Z,0.50
2023-03-13T06:55:07.367Z,0.20
2023-03-13T06:56:07.374Z,0.10
2023-03-13T06:57:07.773Z,0.30
2023-03-13T06:58:07.322Z,0.20
2023-03-13T06:59:07.320Z,0.30
2023-03-13T07:00:07.320Z,0.20
2023-03-13T07:01:07.410Z,0.30
2023-03-13T07:02:07.299Z,0.20
2023-03-13T07:03:07.278Z,0.40
2023-03-13T07:04:07.353Z,0.30
2023-03-13T07:05:07.257Z,0.20
2023-03-13T07:06:07.252Z,0.30
2023-03-13T07:07:07.255Z,0.30
2023-03-13T07:08:07.235Z,0.50
2023-03-13T07:09:07.228Z,0.30
2023-03-13T07:10:07.208Z,0.30
2023-03-13T07:11:07.206Z,0.30
2023-03-13T07:12:07.216Z,0.20
2023-03-13T07:13:07.174Z,0.20
2023-03-13T07:14:16.446Z,0.20
2023-03-13T07:15:07.171Z,0.20
2023-03-13T07:16:07.314Z,0.20
2023-03-13T07:17:07.158Z,0.20
2023-03-13T07:18:07.124Z,0.20
2023-03-13T07:19:07.146Z,0.30
2023-03-13T07:20:07.149Z,0.20
2023-03-13T07:21:07.102Z,0.30
2023-03-13T07:22:07.149Z,0.30
2023-03-13T07:23:07.117Z,0.20
2023-03-13T07:24:07.061Z,0.30
2023-03-13T07:25:07.132Z,0.20
2023-03-13T07:26:07.064Z,0.20
2023-03-13T07:27:08.154Z,0.30
2023-03-13T07:28:07.029Z,0.20
2023-03-13T07:29:07.039Z,0.20
2023-03-13T07:30:07.003Z,0.30
2023-03-13T07:31:07.038Z,0.30
2023-03-13T07:32:07.097Z,0.30
2023-03-13T07:33:07.063Z,0.30
2023-03-13T07:34:06.959Z,0.20
2023-03-13T07:35:06.962Z,0.40
2023-03-13T07:36:06.961Z,0.30
2023-03-13T07:37:06.945Z,0.20
2023-03-13T07:38:06.941Z,0.20
2023-03-13T07:39:06.912Z,0.50
2023-03-13T07:40:06.899Z,0.40
2023-03-13T07:41:06.904Z,0.50
2023-03-13T07:42:06.934Z,0.30
2023-03-13T07:43:06.876Z,0.40
2023-03-13T07:44:07.105Z,0.60
2023-03-13T07:45:07.339Z,0.90
2023-03-13T07:46:06.926Z,0.40
2023-03-13T07:47:06.849Z,0.30
2023-03-13T07:48:06.824Z,0.20
2023-03-13T07:49:06.985Z,0.20
2023-03-13T07:50:06.896Z,0.30
2023-03-13T07:51:06.797Z,0.40
2023-03-13T07:52:06.798Z,0.20
2023-03-13T07:53:07.200Z,0.40
2023-03-13T07:54:06.811Z,0.30
2023-03-13T07:55:06.764Z,0.20
2023-03-13T07:56:06.747Z,0.40
2023-03-13T07:57:13.611Z,0.20
2023-03-13T07:58:06.750Z,0.30
2023-03-13T07:59:07.053Z,0.30
2023-03-13T08:00:06.829Z,0.20
2023-03-13T08:01:06.689Z,0.40
2023-03-13T08:02:07.389Z,0.40
2023-03-13T08:03:06.711Z,0.30
2023-03-13T08:04:06.667Z,0.30
2023-03-13T08:05:06.730Z,0.30
2023-03-13T08:06:06.985Z,0.10
2023-03-13T08:07:06.720Z,0.20
2023-03-13T08:08:06.632Z,0.30
2023-03-13T08:09:06.786Z,0.50
2023-03-13T08:10:06.594Z,0.40
2023-03-13T08:11:06.667Z,0.30
2023-03-13T08:12:06.594Z,0.20
2023-03-13T08:13:06.804Z,0.20
2023-03-13T08:14:07.003Z,0.40
2023-03-13T08:15:06.573Z,0.40
2023-03-13T08:16:06.569Z,0.30
2023-03-13T08:17:06.693Z,0.30
2023-03-13T08:18:06.521Z,0.20
2023-03-13T08:19:06.496Z,0.30
2023-03-13T08:20:06.557Z,0.30
2023-03-13T08:21:06.541Z,0.40
2023-03-13T08:22:06.515Z,0.20
2023-03-13T08:23:06.518Z,0.30
2023-03-13T08:24:06.447Z,0.30
2023-03-13T08:25:06.444Z,0.30
2023-03-13T08:26:06.475Z,0.30
2023-03-13T08:27:06.433Z,0.30
2023-03-13T08:28:06.420Z,0.40
2023-03-13T08:29:06.496Z,0.30
2023-03-13T08:30:06.395Z,0.40
2023-03-13T08:31:06.383Z,0.40
2023-03-13T08:32:06.582Z,0.30
2023-03-13T08:33:07.755Z,0.40
2023-03-13T08:34:06.354Z,0.40
2023-03-13T08:35:06.376Z,0.30
2023-03-13T08:36:06.344Z,0.30
2023-03-13T08:37:06.336Z,0.30
2023-03-13T08:38:06.359Z,0.40
2023-03-13T08:39:06.300Z,0.30
2023-03-13T08:40:06.319Z,0.30
2023-03-13T08:41:06.301Z,0.30
2023-03-13T08:42:06.273Z,0.40
2023-03-13T08:43:06.263Z,0.30
2023-03-13T08:44:06.279Z,0.30
2023-03-13T08:45:06.244Z,0.60
2023-03-13T08:46:06.265Z,0.30
2023-03-13T08:47:06.219Z,0.30
2023-03-13T08:48:06.206Z,0.30
2023-03-13T08:49:06.218Z,0.40
2023-03-13T08:50:06.183Z,0.40
2023-03-13T08:51:06.179Z,0.40
2023-03-13T08:52:06.195Z,0.30
2023-03-13T08:53:06.150Z,0.40
2023-03-13T08:54:06.152Z,0.50
2023-03-13T08:55:06.168Z,0.40
2023-03-13T08:56:06.224Z,0.60
2023-03-13T08:57:06.199Z,0.30
2023-03-13T08:58:06.148Z,0.40
2023-03-13T08:59:06.106Z,0.40
2023-03-13T09:00:06.122Z,0.40
2023-03-13T09:01:06.128Z,0.50
2023-03-13T09:02:06.217Z,0.40
2023-03-13T09:03:06.056Z,0.30
2023-03-13T09:04:06.122Z,0.40
2023-03-13T09:05:06.032Z,0.40
2023-03-13T09:06:06.030Z,0.40
2023-03-13T09:07:06.117Z,0.40
2023-03-13T09:08:06.021Z,0.30
2023-03-13T09:09:05.988Z,0.50
2023-03-13T09:10:05.979Z,0.50
2023-03-13T09:11:06.014Z,0.30
2023-03-13T09:12:06.238Z,0.40
2023-03-13T09:13:06.037Z,0.40
2023-03-13T09:14:05.960Z,0.50
2023-03-13T09:15:05.924Z,0.30
2023-03-13T09:16:06.034Z,0.40
2023-03-13T09:17:06.853Z,0.40
2023-03-13T09:18:05.910Z,0.50
2023-03-13T09:19:05.921Z,0.50
2023-03-13T09:20:05.898Z,0.50
2023-03-13T09:21:05.889Z,0.30
2023-03-13T09:22:05.885Z,0.40
2023-03-13T09:23:05.909Z,0.50
2023-03-13T09:24:05.849Z,0.50
2023-03-13T09:25:05.855Z,0.40
2023-03-13T09:26:05.822Z,0.40
2023-03-13T09:27:05.813Z,0.30
2023-03-13T09:28:05.840Z,0.40
2023-03-13T09:29:05.791Z,0.50
2023-03-13T09:30:05.797Z,0.40
2023-03-13T09:31:05.791Z,0.50
2023-03-13T09:32:05.766Z,0.50
2023-03-13T09:33:05.766Z,0.40
2023-03-13T09:34:05.737Z,0.40
2023-03-13T09:35:05.718Z,0.40
2023-03-13T09:36:05.752Z,0.40
2023-03-13T09:37:05.727Z,0.40
2023-03-13T09:38:05.696Z,0.30
2023-03-13T09:39:05.680Z,0.40
2023-03-13T09:40:05.684Z,0.50
2023-03-13T09:41:06.631Z,0.60
2023-03-13T09:42:07.672Z,0.50
2023-03-13T09:43:05.637Z,0.60
2023-03-13T09:44:05.633Z,0.50
2023-03-13T09:45:05.621Z,0.50
2023-03-13T09:46:05.663Z,0.40
2023-03-13T09:47:05.688Z,0.40
2023-03-13T09:48:05.582Z,0.30
2023-03-13T09:49:05.572Z,0.50
2023-03-13T09:50:05.571Z,0.60
2023-03-13T09:51:05.590Z,0.50
2023-03-13T09:52:05.955Z,0.40
2023-03-13T09:53:05.547Z,0.50
2023-03-13T09:54:05.528Z,0.40
2023-03-13T09:55:05.533Z,0.40
2023-03-13T09:56:05.509Z,0.40
2023-03-13T09:57:05.524Z,0.40
2023-03-13T09:58:05.497Z,0.60
2023-03-13T09:59:05.479Z,0.70
2023-03-13T10:00:05.465Z,0.50
2023-03-13T10:01:05.444Z,0.50
2023-03-13T10:02:05.580Z,0.30
2023-03-13T10:03:05.431Z,0.50
2023-03-13T10:04:05.566Z,0.50
2023-03-13T10:05:05.399Z,0.50
2023-03-13T10:06:05.397Z,0.60
2023-03-13T10:07:05.392Z,0.40
2023-03-13T10:08:05.370Z,0.70
2023-03-13T10:09:05.368Z,0.60
2023-03-13T10:10:07.831Z,0.60
2023-03-13T10:11:05.427Z,0.70
2023-03-13T10:12:05.353Z,0.50
2023-03-13T10:13:05.348Z,0.70
2023-03-13T10:14:05.332Z,0.60
2023-03-13T10:15:05.302Z,0.60
2023-03-13T10:16:05.404Z,0.50
2023-03-13T10:17:05.292Z,0.60
2023-03-13T10:18:05.295Z,0.70
2023-03-13T10:19:05.277Z,0.70
2023-03-13T10:20:05.300Z,0.50
2023-03-13T10:21:05.273Z,0.50
2023-03-13T10:22:05.257Z,0.80
2023-03-13T10:23:05.252Z,0.60
2023-03-13T10:24:05.209Z,0.40
2023-03-13T10:25:05.214Z,0.70
2023-03-13T10:26:05.293Z,0.70
2023-03-13T10:27:05.239Z,0.50
2023-03-13T10:28:05.197Z,0.60
2023-03-13T10:29:05.249Z,0.50
2023-03-13T10:30:05.162Z,0.80
2023-03-13T10:31:05.202Z,0.50
2023-03-13T10:32:05.199Z,0.70
2023-03-13T10:33:05.121Z,0.70
2023-03-13T10:34:05.109Z,0.80
2023-03-13T10:35:05.129Z,0.70
2023-03-13T10:36:05.133Z,0.80
2023-03-13T10:37:05.088Z,0.60
2023-03-13T10:38:05.083Z,0.70
2023-03-13T10:39:05.048Z,0.80
2023-03-13T10:40:05.083Z,0.80
2023-03-13T10:41:05.045Z,0.60
2023-03-13T10:42:05.034Z,0.80
2023-03-13T10:43:05.048Z,0.70
2023-03-13T10:44:05.013Z,0.70
2023-03-13T10:45:04.998Z,0.70
2023-03-13T10:46:04.980Z,0.70
2023-03-13T10:47:05.230Z,0.90
2023-03-13T10:48:04.973Z,0.70
2023-03-13T10:49:05.018Z,0.70
2023-03-13T10:50:04.960Z,0.70
2023-03-13T10:51:04.921Z,0.80
2023-03-13T10:52:04.964Z,0.60
2023-03-13T10:53:04.953Z,0.50
2023-03-13T10:54:04.895Z,0.60
2023-03-13T10:55:04.891Z,0.50
2023-03-13T10:56:04.908Z,0.60
2023-03-13T10:57:04.876Z,0.70
2023-03-13T10:58:04.877Z,0.60
2023-03-13T10:59:04.876Z,0.70
2023-03-13T11:00:04.833Z,0.60
2023-03-13T11:01:04.819Z,0.60
2023-03-13T11:02:04.842Z,0.60
2023-03-13T11:03:04.872Z,0.50
2023-03-13T11:04:04.794Z,0.60
2023-03-13T11:05:04.786Z,0.60
2023-03-13T11:06:04.771Z,0.60
2023-03-13T11:07:04.791Z,0.70
2023-03-13T11:08:04.810Z,0.70
2023-03-13T11:09:04.786Z,0.70
2023-03-13T11:10:04.793Z,0.70
2023-03-13T11:11:04.777Z,0.50
2023-03-13T11:12:04.810Z,0.70
2023-03-13T11:13:04.772Z,1.50
2023-03-13T11:14:04.689Z,0.60
2023-03-13T11:15:04.781Z,0.60
2023-03-13T11:16:04.725Z,0.60
2023-03-13T11:17:04.675Z,0.60
2023-03-13T11:18:04.672Z,0.60
2023-03-13T11:19:04.636Z,0.70
2023-03-13T11:20:04.635Z,0.70
2023-03-13T11:21:15.920Z,0.50
2023-03-13T11:22:04.679Z,0.60
2023-03-13T11:23:04.592Z,0.70
2023-03-13T11:24:04.594Z,0.60
2023-03-13T11:25:04.586Z,0.70
2023-03-13T11:26:04.582Z,0.60
2023-03-13T11:27:05.495Z,0.70
2023-03-13T11:28:04.557Z,0.70
2023-03-13T11:29:04.641Z,0.70
2023-03-13T11:30:04.677Z,0.60
2023-03-13T11:31:04.567Z,0.50
2023-03-13T11:32:07.399Z,0.70
2023-03-13T11:33:04.631Z,0.70
2023-03-13T11:34:04.494Z,0.70
2023-03-13T11:35:04.477Z,0.60
2023-03-13T11:36:04.519Z,0.60
2023-03-13T11:37:04.483Z,0.60
2023-03-13T11:38:04.744Z,0.70
2023-03-13T11:39:04.436Z,0.70
2023-03-13T11:40:04.426Z,0.70
2023-03-13T11:41:04.407Z,0.50
2023-03-13T11:42:04.416Z,0.90
2023-03-13T11:43:17.782Z,0.90
2023-03-13T11:44:04.400Z,0.60
2023-03-13T11:45:04.373Z,0.50
2023-03-13T11:46:04.586Z,0.50
2023-03-13T11:47:04.411Z,0.80
2023-03-13T11:48:04.369Z,0.50
2023-03-13T11:49:04.332Z,0.70
2023-03-13T11:50:04.323Z,0.60
2023-03-13T11:51:04.347Z,0.50
2023-03-13T11:52:04.350Z,0.60
2023-03-13T11:53:04.346Z,0.70
2023-03-13T11:54:05.288Z,0.50
2023-03-13T11:55:04.271Z,0.60
2023-03-13T11:56:04.267Z,0.60
2023-03-13T11:57:04.252Z,0.70
2023-03-13T11:58:04.253Z,0.60
2023-03-13T11:59:04.236Z,0.60
2023-03-13T12:00:04.230Z,0.50
2023-03-13T12:01:04.318Z,0.70
2023-03-13T12:02:04.261Z,0.40
2023-03-13T12:03:04.188Z,0.70
2023-03-13T12:04:04.174Z,0.70
2023-03-13T12:05:04.183Z,0.60
2023-03-13T12:06:04.148Z,0.70
2023-03-13T12:07:04.897Z,0.60
2023-03-13T12:08:04.146Z,0.60
2023-03-13T12:09:04.121Z,0.60
2023-03-13T12:10:04.116Z,0.50
2023-03-13T12:11:04.106Z,0.50
2023-03-13T12:12:04.134Z,0.60
2023-03-13T12:13:04.083Z,0.50
2023-03-13T12:14:04.068Z,0.50
2023-03-13T12:15:04.078Z,0.50
2023-03-13T12:16:04.053Z,0.70
2023-03-13T12:17:04.062Z,0.60
2023-03-13T12:18:04.057Z,0.50
2023-03-13T12:19:04.020Z,0.70
2023-03-13T12:20:04.028Z,0.60
2023-03-13T12:21:04.009Z,0.70
2023-03-13T12:22:04.020Z,0.70
2023-03-13T12:23:03.976Z,0.40
2023-03-13T12:24:04.036Z,0.70
2023-03-13T12:25:06.373Z,0.60
2023-03-13T12:26:03.945Z,0.60
2023-03-13T12:27:03.951Z,0.40
2023-03-13T12:28:03.997Z,0.50
2023-03-13T12:29:03.919Z,0.40
2023-03-13T12:30:03.916Z,0.70
2023-03-13T12:31:04.061Z,0.50
2023-03-13T12:32:03.897Z,0.40
2023-03-13T12:33:03.990Z,0.40
2023-03-13T12:34:03.865Z,0.60
2023-03-13T12:35:03.969Z,0.60
2023-03-13T12:36:03.924Z,0.50
2023-03-13T12:37:03.853Z,0.50
2023-03-13T12:38:03.826Z,0.50
2023-03-13T12:39:03.843Z,0.70
2023-03-13T12:40:03.821Z,0.50
2023-03-13T12:41:03.825Z,0.60
2023-03-13T12:42:03.804Z,0.50
2023-03-13T12:43:03.793Z,0.50
2023-03-13T12:44:09.274Z,0.40
2023-03-13T12:45:03.760Z,0.40
2023-03-13T12:46:03.953Z,0.50
2023-03-13T12:47:03.764Z,0.60
2023-03-13T12:48:03.758Z,0.60
2023-03-13T12:49:03.720Z,0.40
2023-03-13T12:50:03.703Z,0.40
2023-03-13T12:51:03.730Z,0.60
2023-03-13T12:52:03.700Z,0.40
2023-03-13T12:53:03.684Z,0.60
2023-03-13T12:54:03.786Z,0.40
2023-03-13T12:55:03.656Z,0.50
2023-03-13T12:56:03.643Z,0.30
2023-03-13T12:57:03.680Z,0.40
2023-03-13T12:58:03.627Z,0.40
2023-03-13T12:59:03.687Z,0.40
2023-03-13T13:00:03.604Z,0.40
2023-03-13T13:01:03.633Z,0.30
2023-03-13T13:02:03.635Z,0.50
2023-03-13T13:03:03.571Z,0.40
2023-03-13T13:04:03.646Z,0.40
2023-03-13T13:05:03.581Z,0.40
2023-03-13T13:06:03.551Z,0.30
2023-03-13T13:07:03.640Z,0.30
2023-03-13T13:08:03.534Z,0.60
2023-03-13T13:09:03.509Z,0.60
2023-03-13T13:10:03.523Z,0.50
2023-03-13T13:11:03.529Z,0.50
2023-03-13T13:12:03.525Z,0.40
2023-03-13T13:13:03.463Z,0.50
2023-03-13T13:14:03.498Z,0.30
2023-03-13T13:15:03.454Z,0.40
2023-03-13T13:16:03.493Z,0.40
2023-03-13T13:17:03.486Z,0.50
2023-03-13T13:18:03.406Z,0.30